Ship Status Report: callsign OS8154

sailwx.info

Track history (hours):
 
Tides and Currents Weather Stations Pressure Air Temp Water Temp Dewpoint Dewpoint Depression Visibility Wind Speed Wind Dir Waves Ship Positions

Callsign OS8154 (name unknown)

Last reported at 2014-Sep-01 09:00 UTC. Time now 2014-Sep-01 11:18 UTC.
Position N 72°42' W 078°00'.

Barometer 1005.1 mb
Air temperature 2.0 ° C

Date/timePositionNaut miles runAvg speedWind from/ knotsBaromVisibWave heightAir tempDewpointWater temp
2014-Sep-01 09:00N 72°42' W 078°00'0 0.0 1005.1 2.0
2014-Sep-01 08:00N 72°42' W 078°00'0 0.0 1005.1 1.8
2014-Sep-01 07:00N 72°42' W 078°00'0 0.0 1005.2 2.3
2014-Sep-01 06:00N 72°42' W 078°00'0 0.0 1005.3 2.0
2014-Sep-01 05:00N 72°42' W 078°00'0 0.0 1005.3 2.5
2014-Sep-01 04:00N 72°42' W 078°00'0 0.0 1005.5 3.0
2014-Sep-01 02:00N 72°42' W 078°00'0 0.0 1005.8 3.3
2014-Sep-01 01:00N 72°42' W 078°00'0 0.0 1005.9 5.5
2014-Aug-31 21:00N 72°42' W 078°00'0 0.0 1006.5 7.0
2014-Aug-31 20:00N 72°42' W 078°00'5 5.4 1006.3 6.0
2014-Aug-31 19:00N 72°42' W 078°18'9 8.9 1006.4 3.5
2014-Aug-31 18:00N 72°42' W 078°48'7 7.1 1006.4 3.8
2014-Aug-31 17:00N 72°42' W 079°12'1110.7 1006.5 7.0
2014-Aug-31 16:00N 72°48' W 079°42'9 9.3 1006.8 4.3
2014-Aug-31 15:00N 72°54' W 080°06'14 7.0 1007.1 5.8
2014-Aug-31 13:00N 73°06' W 080°30'1313.1 1007.4 3.5
2014-Aug-31 12:00N 73°18' W 080°48'7 6.9 1007.3 1.5
2014-Aug-31 11:00N 73°24' W 081°00'1212.5 1007.5 1.8
2014-Aug-31 10:00N 73°36' W 081°12'7 6.9 1007.7 0.5
2014-Aug-31 09:00N 73°42' W 081°24'0 0.0 1007.6 0.8
2014-Aug-31 08:00N 73°42' W 081°24'0 0.0 1007.6 1.3
2014-Aug-31 06:00N 73°42' W 081°24'0 0.0 1007.7 2.0
2014-Aug-31 04:00N 73°42' W 081°24'0 0.0 1008.1 2.8
2014-Aug-31 03:00N 73°42' W 081°24'13 6.6 1008.3 2.0
2014-Aug-31 01:00N 73°48' W 082°06'8 8.4 1009.2 0.3
2014-Aug-31 00:00N 73°48' W 082°36'1010.0 1009.4 1.5
2014-Aug-30 23:00N 73°48' W 083°12'8 8.4 1009.4 2.0
2014-Aug-30 22:00N 73°48' W 083°42'19 9.7 1009.5 0.8
2014-Aug-30 20:00N 73°54' W 084°48'1010.0 1009.9 2.0
2014-Aug-30 19:00N 73°54' W 085°24'8 8.3 1010.1 0.5
2014-Aug-30 18:00N 73°54' W 085°54'8 8.3 1010.2 0.3
2014-Aug-30 17:00N 73°54' W 086°24'8 8.3 1010.4 0.8
2014-Aug-30 16:00N 73°54' W 086°54'1010.0 1010.7 0.8
2014-Aug-30 15:00N 73°54' W 087°30'18 8.9 1011.0 2.8
2014-Aug-30 13:00N 73°48' W 088°30'7 6.7 1011.2 2.8
2014-Aug-30 12:00N 73°48' W 088°54'17 8.4 1011.4 2.3
2014-Aug-30 10:00N 73°36' W 089°36'16 7.9 1010.6 3.0
2014-Aug-30 08:00N 73°24' W 090°12'14 6.9 1010.2 2.8
2014-Aug-30 06:00N 73°12' W 090°36'7 6.9 1010.3 2.0
2014-Aug-30 05:00N 73°06' W 090°48'14 6.8 1010.2 3.5
2014-Aug-30 03:00N 73°00' W 091°30'19 9.4 1010.9 1.5
2014-Aug-30 01:00N 72°42' W 091°48'7 7.0 1011.0 1.3
2014-Aug-30 00:00N 72°36' W 092°00'6 6.3 1010.8 0.5
2014-Aug-29 23:00N 72°30' W 091°54'18 9.0 1010.7 -0.0
2014-Aug-29 21:00N 72°12' W 091°48'6 5.5 1010.0 3.0
2014-Aug-29 20:00N 72°12' W 092°06'1111.0 1009.9 4.0
2014-Aug-29 19:00N 72°06' W 092°36'7 7.4 1009.8 4.5
2014-Aug-29 18:00N 72°06' W 093°00'16 8.0 1009.6 4.0
2014-Aug-29 16:00N 72°00' W 093°48'7 7.4 1009.4 4.0
2014-Aug-29 15:00N 72°00' W 094°12'15 7.4 1009.2 2.0
2014-Aug-29 13:00N 72°00' W 095°00'4 3.7 1008.8 4.3
2014-Aug-29 12:00N 72°00' W 095°12'0 0.0 1009.1 4.0
2014-Aug-29 11:00N 72°00' W 095°12'8 8.2 1009.0 3.3
2014-Aug-29 10:00N 72°06' W 095°30'1212.0 1009.3 2.3
2014-Aug-29 09:00N 72°18' W 095°30'6 6.3 1009.6 2.3
2014-Aug-29 08:00N 72°24' W 095°24'1312.5 1009.6 2.0
2014-Aug-29 07:00N 72°36' W 095°36'13 6.6 1010.0 2.5
2014-Aug-29 05:00N 72°48' W 095°54'18 9.0 1010.6 -0.5
2014-Aug-29 03:00N 73°06' W 095°54'6 6.2 1011.2 -0.8
2014-Aug-29 02:00N 73°12' W 095°48'7 6.9 1011.1 1.3
2014-Aug-29 01:00N 73°12' W 096°12'5 5.2 1011.1 -0.0
2014-Aug-29 00:00N 73°12' W 095°54'1212.1 1010.9 1.3
2014-Aug-28 23:00N 73°24' W 095°48'6 6.2 1010.8 1.5
2014-Aug-28 22:00N 73°30' W 095°42'18 9.2 1010.9 1.3
2014-Aug-28 20:00N 73°48' W 095°54'6 6.0 1011.5 3.0
2014-Aug-28 19:00N 73°54' W 095°54'6 6.2 1011.7 0.5
2014-Aug-28 18:00N 74°00' W 095°48'6 6.2 1012.0 0.8
2014-Aug-28 17:00N 74°06' W 095°54'12 6.0 1012.3 -0.0
2014-Aug-28 15:00N 73°54' W 095°54'6 6.0 1012.0 -0.3
2014-Aug-28 14:00N 73°48' W 095°54'12 6.2 1011.7 0.3
2014-Aug-28 12:00N 73°36' W 095°42'2 0.8 1010.9 3.0
2014-Aug-28 10:00N 73°36' W 095°36'0 0.0 1010.4 0.3
2014-Aug-28 09:00N 73°36' W 095°36'0 0.0 1010.4 -0.0
2014-Aug-28 07:00N 73°36' W 095°36'0 0.0 1010.2 -0.0
2014-Aug-28 05:00N 73°36' W 095°36'0 0.0 1009.9 -0.8
2014-Aug-28 04:00N 73°36' W 095°36'0 0.0 1009.8 -1.0
2014-Aug-28 02:00N 73°36' W 095°36'3 1.7 1009.9 -0.0
2014-Aug-28 00:00N 73°36' W 095°48'8 8.5 1009.6 -1.0
2014-Aug-27 23:00N 73°36' W 096°18'8 8.5 1009.5 -0.5
2014-Aug-27 22:00N 73°36' W 096°48'7 6.9 1009.2 0.3
2014-Aug-27 21:00N 73°30' W 097°00'6 6.2 1009.3 0.8
2014-Aug-27 20:00N 73°24' W 097°06'6 6.0 1009.0 0.5
2014-Aug-27 19:00N 73°18' W 097°06'8 7.9 1008.7 1.3
2014-Aug-27 18:00N 73°12' W 096°48'7 6.9 1008.8 1.0
2014-Aug-27 17:00N 73°06' W 096°36'7 7.0 1008.5 -0.3
2014-Aug-27 16:00N 73°06' W 096°12'14 2.3 1008.2 2.0
2014-Aug-27 10:00N 72°54' W 095°48'0 0.0 1007.7 1.3
2014-Aug-27 09:00N 72°54' W 095°48'0 0.0 1007.7 1.0
2014-Aug-27 07:00N 72°54' W 095°48'0 0.0 1007.8 1.3
2014-Aug-27 04:00N 72°54' W 095°48'0 0.0 1007.9 1.5
2014-Aug-27 03:00N 72°54' W 095°48'0 0.0 1008.2 2.5
2014-Aug-27 02:00N 72°54' W 095°48'1212.0 1008.2 2.8
2014-Aug-27 01:00N 72°42' W 095°48'6 6.3 1008.1 0.8
2014-Aug-27 00:00N 72°36' W 095°42'11 5.4 1008.1 0.3
2014-Aug-26 22:00N 72°30' W 095°12'0 0.0 1008.1 2.3
2014-Aug-26 21:00N 72°30' W 095°12'0 0.0 1008.5 3.5
2014-Aug-26 20:00N 72°30' W 095°12'0 0.0 1008.7 0.5
2014-Aug-26 19:00N 72°30' W 095°12'0 0.0 1009.0 1.3
2014-Aug-26 18:00N 72°30' W 095°12'0 0.0 1009.3 1.0
2014-Aug-26 17:00N 72°30' W 095°12'0 0.0 1009.3 0.3
2014-Aug-26 16:00N 72°30' W 095°12'0 0.0 1009.4 0.8
2014-Aug-26 15:00N 72°30' W 095°12'0 0.0 1009.8 0.5
2014-Aug-26 14:00N 72°30' W 095°12'0 0.0 1010.5 -0.5
2014-Aug-26 12:00N 72°30' W 095°12'0 0.0 1010.9 -0.8
2014-Aug-26 11:00N 72°30' W 095°12'0 0.0 1011.0 -1.3
2014-Aug-26 10:00N 72°30' W 095°12'0 0.0 1011.1 -1.8
2014-Aug-26 09:00N 72°30' W 095°12'0 0.0 1011.1 -2.0
2014-Aug-26 08:00N 72°30' W 095°12'0 0.0 1011.0 -1.3
2014-Aug-26 07:00N 72°30' W 095°12'0 0.0 1011.5 -1.3
2014-Aug-26 03:00N 72°30' W 095°12'0 0.0 1011.9 1.3
2014-Aug-26 01:00N 72°30' W 095°12'4 3.6 1011.8 2.8
2014-Aug-26 00:00N 72°30' W 095°24'0 0.0 1011.9 0.5
2014-Aug-25 23:00N 72°30' W 095°24'2 1.8 1012.2 0.3
2014-Aug-25 22:00N 72°30' W 095°30'5 5.4 1012.3 1.3
2014-Aug-25 21:00N 72°30' W 095°48'13 6.6 1012.4 3.5
2014-Aug-25 19:00N 72°18' W 096°06'7 7.3 1012.5 1.0
2014-Aug-25 18:00N 72°18' W 096°30'2 1.8 1012.7 4.3
2014-Aug-25 17:00N 72°18' W 096°36'0 0.0 1012.6 3.5
2014-Aug-25 16:00N 72°18' W 096°36'0 0.0 1012.5 2.5
2014-Aug-25 15:00N 72°18' W 096°36'0 0.0 1012.7 1.3
2014-Aug-25 14:00N 72°18' W 096°36'0 0.0 1012.7 1.0
2014-Aug-25 13:00N 72°18' W 096°36'0 0.0 1012.7 2.0
2014-Aug-25 12:00N 72°18' W 096°36'0 0.0 1012.6 2.5
2014-Aug-25 11:00N 72°18' W 096°36'0 0.0 1012.7 3.0
2014-Aug-25 09:00N 72°18' W 096°36'0 0.0 1012.5 4.0
2014-Aug-25 07:00N 72°18' W 096°36'0 0.0 1012.6 4.0
2014-Aug-25 06:00N 72°18' W 096°36'0 0.0 1012.7 4.5
2014-Aug-25 05:00N 72°18' W 096°36'0 0.0 1012.7 5.3
2014-Aug-25 04:00N 72°18' W 096°36'0 0.0 1012.7 5.5
2014-Aug-25 03:00N 72°18' W 096°36'0 0.0 1013.1 5.3
2014-Aug-25 02:00N 72°18' W 096°36'0 0.0 1013.4 2.8
2014-Aug-25 01:00N 72°18' W 096°36'0 0.0 1013.6 3.0
2014-Aug-25 00:00N 72°18' W 096°36'0 0.0 1013.9 2.0
2014-Aug-24 19:00N 72°18' W 096°36'6 6.0 1014.6 7.0
2014-Aug-24 18:00N 72°12' W 096°36'0 0.0 1014.9 6.8
2014-Aug-24 16:00N 72°12' W 096°36'0 0.0 1015.3 7.0
2014-Aug-24 15:00N 72°12' W 096°36'0 0.0 1015.6 6.0
2014-Aug-24 14:00N 72°12' W 096°36'0 0.0 1015.9 3.8
2014-Aug-24 12:00N 72°12' W 096°36'0 0.0 1016.5 3.3
2014-Aug-24 11:00N 72°12' W 096°36'0 0.0 1016.6 3.8
2014-Aug-24 10:00N 72°12' W 096°36'0 0.0 1017.3 4.3
2014-Aug-24 09:00N 72°12' W 096°36'0 0.0 1018.0 4.5
2014-Aug-24 08:00N 72°12' W 096°36'6 3.0 1018.8 4.0
2014-Aug-24 06:00N 72°18' W 096°36'0 0.0 1019.8 4.0
2014-Aug-24 04:00N 72°18' W 096°36'0 0.0 1021.9 5.0
2014-Aug-24 03:00N 72°18' W 096°36'0 0.0 1022.4 3.3
2014-Aug-24 02:00N 72°18' W 096°36'0 0.0 1022.8 3.3
2014-Aug-24 01:00N 72°18' W 096°36'0 0.0 1023.4 3.3
2014-Aug-24 00:00N 72°18' W 096°36'0 0.0 1023.9 3.8
2014-Aug-23 23:00N 72°18' W 096°36'0 0.0 1024.4 3.8
2014-Aug-23 21:00N 72°18' W 096°36'0 0.0 1025.1 5.3
2014-Aug-23 20:00N 72°18' W 096°36'0 0.0 1025.4 5.5
2014-Aug-23 19:00N 72°18' W 096°36'0 0.0 1025.7 4.5
2014-Aug-23 17:00N 72°18' W 096°36'0 0.0 1026.4 3.5
2014-Aug-23 16:00N 72°18' W 096°36'0 0.0 1026.5 3.3
2014-Aug-23 15:00N 72°18' W 096°36'0 0.0 1026.6 2.8
2014-Aug-23 14:00N 72°18' W 096°36'0 0.0 1027.0 2.0
2014-Aug-23 13:00N 72°18' W 096°36'0 0.0 1027.1 1.5
2014-Aug-23 12:00N 72°18' W 096°36'0 0.0 1026.9 1.3
2014-Aug-23 11:00N 72°18' W 096°36'0 0.0 1027.0 1.5
2014-Aug-23 10:00N 72°18' W 096°36'0 0.0 1027.0 1.5
2014-Aug-23 09:00N 72°18' W 096°36'0 0.0 1027.2 1.5
2014-Aug-23 08:00N 72°18' W 096°36'0 0.0 1027.0 1.5
2014-Aug-23 06:00N 72°18' W 096°36'0 0.0 1026.4 2.3
2014-Aug-23 04:00N 72°18' W 096°36'0 0.0 1026.0 2.3
2014-Aug-23 03:00N 72°18' W 096°36'0 0.0 1025.7 3.0
2014-Aug-23 02:00N 72°18' W 096°36'8 8.1 1025.8 2.0
2014-Aug-23 01:00N 72°12' W 096°18'1110.9 1025.5 1.3
2014-Aug-23 00:00N 72°18' W 095°48'9 4.6 1025.2 1.0
2014-Aug-22 22:00N 72°18' W 095°18'4 3.6 1024.4 2.3
2014-Aug-22 21:00N 72°18' W 095°30'6 6.0 1024.1 2.0
2014-Aug-22 20:00N 72°24' W 095°30'7 7.0 1023.8 1.3
2014-Aug-22 19:00N 72°18' W 095°42'7 7.0 1023.5 2.0
2014-Aug-22 18:00N 72°12' W 095°30'7 7.3 1023.4 2.0
2014-Aug-22 17:00N 72°12' W 095°54'7 7.3 1023.2 1.8
2014-Aug-22 16:00N 72°12' W 096°18'4 3.7 1023.1 2.5
2014-Aug-22 15:00N 72°12' W 096°30'0 0.0 1022.3 2.8
2014-Aug-22 14:00N 72°12' W 096°30'0 0.0 1022.4 2.3
2014-Aug-22 09:00N 72°12' W 096°30'   1022.5 1.3
Track history (hours):
 
Tides and Currents Weather Stations Pressure Air Temp Water Temp Dewpoint Dewpoint Depression Visibility Wind Speed Wind Dir Waves Ship Positions

Callsign OS8154 (name unknown)

Last reported at 2014-Sep-01 09:00 UTC. Time now 2014-Sep-01 11:18 UTC.
Position N 72°42' W 078°00'.

Barometer 1005.1 mb
Air temperature 2.0 ° C

Date/timePositionNaut miles runAvg speedWind from/ knotsBaromVisibWave heightAir tempDewpointWater temp
2014-Sep-01 09:00N 72°42' W 078°00'0 0.0 1005.1 2.0
2014-Sep-01 08:00N 72°42' W 078°00'0 0.0 1005.1 1.8
2014-Sep-01 07:00N 72°42' W 078°00'0 0.0 1005.2 2.3
2014-Sep-01 06:00N 72°42' W 078°00'0 0.0 1005.3 2.0
2014-Sep-01 05:00N 72°42' W 078°00'0 0.0 1005.3 2.5
2014-Sep-01 04:00N 72°42' W 078°00'0 0.0 1005.5 3.0
2014-Sep-01 02:00N 72°42' W 078°00'0 0.0 1005.8 3.3
2014-Sep-01 01:00N 72°42' W 078°00'0 0.0 1005.9 5.5
2014-Aug-31 21:00N 72°42' W 078°00'0 0.0 1006.5 7.0
2014-Aug-31 20:00N 72°42' W 078°00'5 5.4 1006.3 6.0
2014-Aug-31 19:00N 72°42' W 078°18'9 8.9 1006.4 3.5
2014-Aug-31 18:00N 72°42' W 078°48'7 7.1 1006.4 3.8
2014-Aug-31 17:00N 72°42' W 079°12'1110.7 1006.5 7.0
2014-Aug-31 16:00N 72°48' W 079°42'9 9.3 1006.8 4.3
2014-Aug-31 15:00N 72°54' W 080°06'14 7.0 1007.1 5.8
2014-Aug-31 13:00N 73°06' W 080°30'1313.1 1007.4 3.5
2014-Aug-31 12:00N 73°18' W 080°48'7 6.9 1007.3 1.5
2014-Aug-31 11:00N 73°24' W 081°00'1212.5 1007.5 1.8
2014-Aug-31 10:00N 73°36' W 081°12'7 6.9 1007.7 0.5
2014-Aug-31 09:00N 73°42' W 081°24'0 0.0 1007.6 0.8
2014-Aug-31 08:00N 73°42' W 081°24'0 0.0 1007.6 1.3
2014-Aug-31 06:00N 73°42' W 081°24'0 0.0 1007.7 2.0
2014-Aug-31 04:00N 73°42' W 081°24'0 0.0 1008.1 2.8
2014-Aug-31 03:00N 73°42' W 081°24'13 6.6 1008.3 2.0
2014-Aug-31 01:00N 73°48' W 082°06'8 8.4 1009.2 0.3
2014-Aug-31 00:00N 73°48' W 082°36'1010.0 1009.4 1.5
2014-Aug-30 23:00N 73°48' W 083°12'8 8.4 1009.4 2.0
2014-Aug-30 22:00N 73°48' W 083°42'19 9.7 1009.5 0.8
2014-Aug-30 20:00N 73°54' W 084°48'1010.0 1009.9 2.0
2014-Aug-30 19:00N 73°54' W 085°24'8 8.3 1010.1 0.5
2014-Aug-30 18:00N 73°54' W 085°54'8 8.3 1010.2 0.3
2014-Aug-30 17:00N 73°54' W 086°24'8 8.3 1010.4 0.8
2014-Aug-30 16:00N 73°54' W 086°54'1010.0 1010.7 0.8
2014-Aug-30 15:00N 73°54' W 087°30'18 8.9 1011.0 2.8
2014-Aug-30 13:00N 73°48' W 088°30'7 6.7 1011.2 2.8
2014-Aug-30 12:00N 73°48' W 088°54'17 8.4 1011.4 2.3
2014-Aug-30 10:00N 73°36' W 089°36'16 7.9 1010.6 3.0
2014-Aug-30 08:00N 73°24' W 090°12'14 6.9 1010.2 2.8
2014-Aug-30 06:00N 73°12' W 090°36'7 6.9 1010.3 2.0
2014-Aug-30 05:00N 73°06' W 090°48'14 6.8 1010.2 3.5
2014-Aug-30 03:00N 73°00' W 091°30'19 9.4 1010.9 1.5
2014-Aug-30 01:00N 72°42' W 091°48'7 7.0 1011.0 1.3
2014-Aug-30 00:00N 72°36' W 092°00'6 6.3 1010.8 0.5
2014-Aug-29 23:00N 72°30' W 091°54'18 9.0 1010.7 -0.0
2014-Aug-29 21:00N 72°12' W 091°48'6 5.5 1010.0 3.0
2014-Aug-29 20:00N 72°12' W 092°06'1111.0 1009.9 4.0
2014-Aug-29 19:00N 72°06' W 092°36'7 7.4 1009.8 4.5
2014-Aug-29 18:00N 72°06' W 093°00'16 8.0 1009.6 4.0
2014-Aug-29 16:00N 72°00' W 093°48'7 7.4 1009.4 4.0
2014-Aug-29 15:00N 72°00' W 094°12'15 7.4 1009.2 2.0
2014-Aug-29 13:00N 72°00' W 095°00'4 3.7 1008.8 4.3
2014-Aug-29 12:00N 72°00' W 095°12'0 0.0 1009.1 4.0
2014-Aug-29 11:00N 72°00' W 095°12'8 8.2 1009.0 3.3
2014-Aug-29 10:00N 72°06' W 095°30'1212.0 1009.3 2.3
2014-Aug-29 09:00N 72°18' W 095°30'6 6.3 1009.6 2.3
2014-Aug-29 08:00N 72°24' W 095°24'1312.5 1009.6 2.0
2014-Aug-29 07:00N 72°36' W 095°36'13 6.6 1010.0 2.5
2014-Aug-29 05:00N 72°48' W 095°54'18 9.0 1010.6 -0.5
2014-Aug-29 03:00N 73°06' W 095°54'6 6.2 1011.2 -0.8
2014-Aug-29 02:00N 73°12' W 095°48'7 6.9 1011.1 1.3
2014-Aug-29 01:00N 73°12' W 096°12'5 5.2 1011.1 -0.0
2014-Aug-29 00:00N 73°12' W 095°54'1212.1 1010.9 1.3
2014-Aug-28 23:00N 73°24' W 095°48'6 6.2 1010.8 1.5
2014-Aug-28 22:00N 73°30' W 095°42'18 9.2 1010.9 1.3
2014-Aug-28 20:00N 73°48' W 095°54'6 6.0 1011.5 3.0
2014-Aug-28 19:00N 73°54' W 095°54'6 6.2 1011.7 0.5
2014-Aug-28 18:00N 74°00' W 095°48'6 6.2 1012.0 0.8
2014-Aug-28 17:00N 74°06' W 095°54'12 6.0 1012.3 -0.0
2014-Aug-28 15:00N 73°54' W 095°54'6 6.0 1012.0 -0.3
2014-Aug-28 14:00N 73°48' W 095°54'12 6.2 1011.7 0.3
2014-Aug-28 12:00N 73°36' W 095°42'2 0.8 1010.9 3.0
2014-Aug-28 10:00N 73°36' W 095°36'0 0.0 1010.4 0.3
2014-Aug-28 09:00N 73°36' W 095°36'0 0.0 1010.4 -0.0
2014-Aug-28 07:00N 73°36' W 095°36'0 0.0 1010.2 -0.0
2014-Aug-28 05:00N 73°36' W 095°36'0 0.0 1009.9 -0.8
2014-Aug-28 04:00N 73°36' W 095°36'0 0.0 1009.8 -1.0
2014-Aug-28 02:00N 73°36' W 095°36'3 1.7 1009.9 -0.0
2014-Aug-28 00:00N 73°36' W 095°48'8 8.5 1009.6 -1.0
2014-Aug-27 23:00N 73°36' W 096°18'8 8.5 1009.5 -0.5
2014-Aug-27 22:00N 73°36' W 096°48'7 6.9 1009.2 0.3
2014-Aug-27 21:00N 73°30' W 097°00'6 6.2 1009.3 0.8
2014-Aug-27 20:00N 73°24' W 097°06'6 6.0 1009.0 0.5
2014-Aug-27 19:00N 73°18' W 097°06'8 7.9 1008.7 1.3
2014-Aug-27 18:00N 73°12' W 096°48'7 6.9 1008.8 1.0
2014-Aug-27 17:00N 73°06' W 096°36'7 7.0 1008.5 -0.3
2014-Aug-27 16:00N 73°06' W 096°12'14 2.3 1008.2 2.0
2014-Aug-27 10:00N 72°54' W 095°48'0 0.0 1007.7 1.3
2014-Aug-27 09:00N 72°54' W 095°48'0 0.0 1007.7 1.0
2014-Aug-27 07:00N 72°54' W 095°48'0 0.0 1007.8 1.3
2014-Aug-27 04:00N 72°54' W 095°48'0 0.0 1007.9 1.5
2014-Aug-27 03:00N 72°54' W 095°48'0 0.0 1008.2 2.5
2014-Aug-27 02:00N 72°54' W 095°48'1212.0 1008.2 2.8
2014-Aug-27 01:00N 72°42' W 095°48'6 6.3 1008.1 0.8
2014-Aug-27 00:00N 72°36' W 095°42'11 5.4 1008.1 0.3
2014-Aug-26 22:00N 72°30' W 095°12'0 0.0 1008.1 2.3
2014-Aug-26 21:00N 72°30' W 095°12'0 0.0 1008.5 3.5
2014-Aug-26 20:00N 72°30' W 095°12'0 0.0 1008.7 0.5
2014-Aug-26 19:00N 72°30' W 095°12'0 0.0 1009.0 1.3
2014-Aug-26 18:00N 72°30' W 095°12'0 0.0 1009.3 1.0
2014-Aug-26 17:00N 72°30' W 095°12'0 0.0 1009.3 0.3
2014-Aug-26 16:00N 72°30' W 095°12'0 0.0 1009.4 0.8
2014-Aug-26 15:00N 72°30' W 095°12'0 0.0 1009.8 0.5
2014-Aug-26 14:00N 72°30' W 095°12'0 0.0 1010.5 -0.5
2014-Aug-26 12:00N 72°30' W 095°12'0 0.0 1010.9 -0.8
2014-Aug-26 11:00N 72°30' W 095°12'0 0.0 1011.0 -1.3
2014-Aug-26 10:00N 72°30' W 095°12'0 0.0 1011.1 -1.8
2014-Aug-26 09:00N 72°30' W 095°12'0 0.0 1011.1 -2.0
2014-Aug-26 08:00N 72°30' W 095°12'0 0.0 1011.0 -1.3
2014-Aug-26 07:00N 72°30' W 095°12'0 0.0 1011.5 -1.3
2014-Aug-26 03:00N 72°30' W 095°12'0 0.0 1011.9 1.3
2014-Aug-26 01:00N 72°30' W 095°12'4 3.6 1011.8 2.8
2014-Aug-26 00:00N 72°30' W 095°24'0 0.0 1011.9 0.5
2014-Aug-25 23:00N 72°30' W 095°24'2 1.8 1012.2 0.3
2014-Aug-25 22:00N 72°30' W 095°30'5 5.4 1012.3 1.3
2014-Aug-25 21:00N 72°30' W 095°48'13 6.6 1012.4 3.5
2014-Aug-25 19:00N 72°18' W 096°06'7 7.3 1012.5 1.0
2014-Aug-25 18:00N 72°18' W 096°30'2 1.8 1012.7 4.3
2014-Aug-25 17:00N 72°18' W 096°36'0 0.0 1012.6 3.5
2014-Aug-25 16:00N 72°18' W 096°36'0 0.0 1012.5 2.5
2014-Aug-25 15:00N 72°18' W 096°36'0 0.0 1012.7 1.3
2014-Aug-25 14:00N 72°18' W 096°36'0 0.0 1012.7 1.0
2014-Aug-25 13:00N 72°18' W 096°36'0 0.0 1012.7 2.0
2014-Aug-25 12:00N 72°18' W 096°36'0 0.0 1012.6 2.5
2014-Aug-25 11:00N 72°18' W 096°36'0 0.0 1012.7 3.0
2014-Aug-25 09:00N 72°18' W 096°36'0 0.0 1012.5 4.0
2014-Aug-25 07:00N 72°18' W 096°36'0 0.0 1012.6 4.0
2014-Aug-25 06:00N 72°18' W 096°36'0 0.0 1012.7 4.5
2014-Aug-25 05:00N 72°18' W 096°36'0 0.0 1012.7 5.3
2014-Aug-25 04:00N 72°18' W 096°36'0 0.0 1012.7 5.5
2014-Aug-25 03:00N 72°18' W 096°36'0 0.0 1013.1 5.3
2014-Aug-25 02:00N 72°18' W 096°36'0 0.0 1013.4 2.8
2014-Aug-25 01:00N 72°18' W 096°36'0 0.0 1013.6 3.0
2014-Aug-25 00:00N 72°18' W 096°36'0 0.0 1013.9 2.0
2014-Aug-24 19:00N 72°18' W 096°36'6 6.0 1014.6 7.0
2014-Aug-24 18:00N 72°12' W 096°36'0 0.0 1014.9 6.8
2014-Aug-24 16:00N 72°12' W 096°36'0 0.0 1015.3 7.0
2014-Aug-24 15:00N 72°12' W 096°36'0 0.0 1015.6 6.0
2014-Aug-24 14:00N 72°12' W 096°36'0 0.0 1015.9 3.8
2014-Aug-24 12:00N 72°12' W 096°36'0 0.0 1016.5 3.3
2014-Aug-24 11:00N 72°12' W 096°36'0 0.0 1016.6 3.8
2014-Aug-24 10:00N 72°12' W 096°36'0 0.0 1017.3 4.3
2014-Aug-24 09:00N 72°12' W 096°36'0 0.0 1018.0 4.5
2014-Aug-24 08:00N 72°12' W 096°36'6 3.0 1018.8 4.0
2014-Aug-24 06:00N 72°18' W 096°36'0 0.0 1019.8 4.0
2014-Aug-24 04:00N 72°18' W 096°36'0 0.0 1021.9 5.0
2014-Aug-24 03:00N 72°18' W 096°36'0 0.0 1022.4 3.3
2014-Aug-24 02:00N 72°18' W 096°36'0 0.0 1022.8 3.3
2014-Aug-24 01:00N 72°18' W 096°36'0 0.0 1023.4 3.3
2014-Aug-24 00:00N 72°18' W 096°36'0 0.0 1023.9 3.8
2014-Aug-23 23:00N 72°18' W 096°36'0 0.0 1024.4 3.8
2014-Aug-23 21:00N 72°18' W 096°36'0 0.0 1025.1 5.3
2014-Aug-23 20:00N 72°18' W 096°36'0 0.0 1025.4 5.5
2014-Aug-23 19:00N 72°18' W 096°36'0 0.0 1025.7 4.5
2014-Aug-23 17:00N 72°18' W 096°36'0 0.0 1026.4 3.5
2014-Aug-23 16:00N 72°18' W 096°36'0 0.0 1026.5 3.3
2014-Aug-23 15:00N 72°18' W 096°36'0 0.0 1026.6 2.8
2014-Aug-23 14:00N 72°18' W 096°36'0 0.0 1027.0 2.0
2014-Aug-23 13:00N 72°18' W 096°36'0 0.0 1027.1 1.5
2014-Aug-23 12:00N 72°18' W 096°36'0 0.0 1026.9 1.3
2014-Aug-23 11:00N 72°18' W 096°36'0 0.0 1027.0 1.5
2014-Aug-23 10:00N 72°18' W 096°36'0 0.0 1027.0 1.5
2014-Aug-23 09:00N 72°18' W 096°36'0 0.0 1027.2 1.5
2014-Aug-23 08:00N 72°18' W 096°36'0 0.0 1027.0 1.5
2014-Aug-23 06:00N 72°18' W 096°36'0 0.0 1026.4 2.3
2014-Aug-23 04:00N 72°18' W 096°36'0 0.0 1026.0 2.3
2014-Aug-23 03:00N 72°18' W 096°36'0 0.0 1025.7 3.0
2014-Aug-23 02:00N 72°18' W 096°36'8 8.1 1025.8 2.0
2014-Aug-23 01:00N 72°12' W 096°18'1110.9 1025.5 1.3
2014-Aug-23 00:00N 72°18' W 095°48'9 4.6 1025.2 1.0
2014-Aug-22 22:00N 72°18' W 095°18'4 3.6 1024.4 2.3
2014-Aug-22 21:00N 72°18' W 095°30'6 6.0 1024.1 2.0
2014-Aug-22 20:00N 72°24' W 095°30'7 7.0 1023.8 1.3
2014-Aug-22 19:00N 72°18' W 095°42'7 7.0 1023.5 2.0
2014-Aug-22 18:00N 72°12' W 095°30'7 7.3 1023.4 2.0
2014-Aug-22 17:00N 72°12' W 095°54'7 7.3 1023.2 1.8
2014-Aug-22 16:00N 72°12' W 096°18'4 3.7 1023.1 2.5
2014-Aug-22 15:00N 72°12' W 096°30'0 0.0 1022.3 2.8
2014-Aug-22 14:00N 72°12' W 096°30'0 0.0 1022.4 2.3
2014-Aug-22 09:00N 72°12' W 096°30'   1022.5 1.3

Dump ship's entire track history